WetterOnline ( http://www.wetteronline.de )

Wetter aktuell Würzburg

Aktuelles Wetter: Würzburg (272m)

6-stündlich | Neueste Meldungen
Ortszeit Temperatur Wetter
Mo, 23.04. 2:00 18.3° C bedeckt
So, 22.04. 20:00 23.2° C fast wolkenlos
So, 22.04. 14:00 25.4° C wolkenlos
So, 22.04. 8:00 13.5° C wolkig
So, 22.04. 2:00 15.4° C wolkenlos
Sa, 21.04. 20:00 22.4° C wolkenlos
Sa, 21.04. 14:00 25.7° C wolkenlos
Sa, 21.04. 8:00 11.9° C wolkenlos
Ortszeit Temperatur Wetter
Mo, 23.04. 5:30 16.1° C bedeckt
Mo, 23.04. 5:20 16.1° C bedeckt
Mo, 23.04. 5:10 15.9° C bewölkt
Mo, 23.04. 5:00 15.9° C wolkig
Mo, 23.04. 4:50 15.9° C wolkig
Mo, 23.04. 4:40 15.7° C leicht bewölkt
Mo, 23.04. 4:30 16.2° C fast wolkenlos
Mo, 23.04. 4:00 16.1° C wolkenlos
Mo, 23.04. 3:30 17.2° C wolkenlos
Mo, 23.04. 3:00 17.4° C fast wolkenlos
Mo, 23.04. 2:30 17.5° C fast wolkenlos
Ortszeit Relative Feuchte Sichtweite
Mo, 23.04. 2:00 56% 50 km
So, 22.04. 20:00 43% 50 km
So, 22.04. 14:00 44% 25 km
So, 22.04. 8:00 83% 8 km
So, 22.04. 2:00 77% 13 km
Sa, 21.04. 20:00 46% 35 km
Sa, 21.04. 14:00 41% 26 km
Sa, 21.04. 8:00 84% 16 km
Ortszeit Relative Feuchte Sichtweite
Mo, 23.04. 5:30 61% 60 km
Mo, 23.04. 5:20 61% -
Mo, 23.04. 5:10 62% -
Mo, 23.04. 5:00 62% 55 km
Mo, 23.04. 4:50 62% -
Mo, 23.04. 4:40 63% -
Mo, 23.04. 4:30 61% 55 km
Mo, 23.04. 4:00 63% 50 km
Mo, 23.04. 3:30 57% 55 km
Mo, 23.04. 3:00 57% 55 km
Mo, 23.04. 2:30 58% 50 km
Ortszeit Niederschlagsmenge Niederschlagsart
Mo, 23.04. 2:00 0.0 l/m2 in 6 Std. -
So, 22.04. 20:00 0.0 l/m2 in 12 Std. -
So, 22.04. 14:00 0.0 l/m2 in 6 Std. -
So, 22.04. 8:00 0.0 l/m2 in 12 Std. -
So, 22.04. 2:00 0.0 l/m2 in 6 Std. -
Sa, 21.04. 20:00 0.0 l/m2 in 12 Std. -
Sa, 21.04. 14:00 0.0 l/m2 in 6 Std. -
Sa, 21.04. 8:00 0.0 l/m2 in 12 Std. -
Ortszeit Niederschlagsmenge Niederschlagsart
Mo, 23.04. 5:30 0.0 l/m2 in 1 Std. -
Mo, 23.04. 5:20 keine Meldung -
Mo, 23.04. 5:10 keine Meldung -
Mo, 23.04. 5:00 0.0 l/m2 in 1 Std. -
Mo, 23.04. 4:50 keine Meldung -
Mo, 23.04. 4:40 keine Meldung -
Mo, 23.04. 4:30 0.0 l/m2 in 1 Std. -
Mo, 23.04. 4:00 0.0 l/m2 in 1 Std. -
Mo, 23.04. 3:30 0.0 l/m2 in 1 Std. -
Mo, 23.04. 3:00 0.0 l/m2 in 1 Std. -
Mo, 23.04. 2:30 0.0 l/m2 in 1 Std. -
Ortszeit Stärke Spitze Richtung
km/h Bft. km/h Grad Sektor
Mo, 23.04. 2:00 7 2 18 210° SW
So, 22.04. 20:00 9 2 31 250° W
So, 22.04. 14:00 7 2 18 170° S
So, 22.04. 8:00 4 1 11 50° NO
So, 22.04. 2:00 0 0 18 - -
Sa, 21.04. 20:00 7 2 25 20° N
Sa, 21.04. 14:00 11 2 18 110° O
Sa, 21.04. 8:00 4 1 7 320° NW
Ortszeit Stärke Spitze Richtung
km/h Bft. km/h Grad Sektor
Mo, 23.04. 5:30 11 2 14 180° S
Mo, 23.04. 5:20 11 2 - 180° S
Mo, 23.04. 5:10 11 2 - 180° S
Mo, 23.04. 5:00 11 2 14 180° S
Mo, 23.04. 4:50 11 2 - 180° S
Mo, 23.04. 4:40 11 2 - 170° S
Mo, 23.04. 4:30 7 2 14 190° S
Mo, 23.04. 4:00 9 2 13 170° S
Mo, 23.04. 3:30 7 2 11 190° S
Mo, 23.04. 3:00 4 1 11 220° SW
Mo, 23.04. 2:30 6 1 11 240° SW
Ortszeit Untergrenze Bedeckung Gattung
total tief tief mittel hoch
Mo, 23.04. 2:00 3600 m 8/8 8/8 - - -
So, 22.04. 20:00 12000 m 1/8 0/8 - - -
So, 22.04. 14:00 - 0/8 0/8 - - -
So, 22.04. 8:00 2400 m 5/8 5/8 - - -
So, 22.04. 2:00 12000 m 0/8 0/8 - - -
Sa, 21.04. 20:00 - 0/8 0/8 - - -
Sa, 21.04. 14:00 - 0/8 0/8 - - -
Sa, 21.04. 8:00 - 0/8 0/8 - - -
Ortszeit Bedeckungsgrad in Achtel und Wolkenuntergrenze
Mo, 23.04. 5:30 2(3300m) 7(4500m) 8(5100m)
Mo, 23.04. 5:20 2(3300m) 7(4500m) 8(5100m)
Mo, 23.04. 5:10 2(3600m) 7(4500m) 7(5100m)
Mo, 23.04. 5:00 5(4200m) 5(5100m)
Mo, 23.04. 4:50 5(4200m) 5(5100m)
Mo, 23.04. 4:40 2(4200m)
Mo, 23.04. 4:30 1(12000m) 1(12000m)
Mo, 23.04. 4:00 keine Wolken
Mo, 23.04. 3:30 keine Wolken
Mo, 23.04. 3:00 1(12000m)
Mo, 23.04. 2:30 1(4500m)
Ortszeit Luftdruck NN (hPa) Tendenz (hPa in 3 Std.)
Mo, 23.04. 2:00 1014 + 0,7
So, 22.04. 20:00 1012 - 0,2
So, 22.04. 14:00 1014 - 1,3
So, 22.04. 8:00 1017 - 0,4
So, 22.04. 2:00 1018 - 0,1
Sa, 21.04. 20:00 1017 - 0,6
Sa, 21.04. 14:00 1019 - 1,0
Sa, 21.04. 8:00 1021 + 0,4
Ortszeit Luftdruck NN (hPa) Tendenz (hPa in 3 Std.)
Mo, 23.04. 5:30 1014 + 0,2
Mo, 23.04. 5:20 1014 keine Meldung
Mo, 23.04. 5:10 1014 keine Meldung
Mo, 23.04. 5:00 1014 + 0,1
Mo, 23.04. 4:50 1014 keine Meldung
Mo, 23.04. 4:40 1014 keine Meldung
Mo, 23.04. 4:30 1014 0,0
Mo, 23.04. 4:00 1014 - 0,2
Mo, 23.04. 3:30 1014 0,0
Mo, 23.04. 3:00 1014 0,0
Mo, 23.04. 2:30 1014 + 0,3
Ortszeit Schneehöhe (cm)
Mo, 23.04. 2:00 0
So, 22.04. 20:00 0
So, 22.04. 14:00 0
So, 22.04. 8:00 0
So, 22.04. 2:00 0
Sa, 21.04. 20:00 0
Sa, 21.04. 14:00 0
Sa, 21.04. 8:00 0
Ortszeit Schneehöhe (cm)
Mo, 23.04. 5:30 0
Mo, 23.04. 5:20 0
Mo, 23.04. 5:10 0
Mo, 23.04. 5:00 0
Mo, 23.04. 4:50 0
Mo, 23.04. 4:40 0
Mo, 23.04. 4:30 0
Mo, 23.04. 4:00 0
Mo, 23.04. 3:30 0
Mo, 23.04. 3:00 0
Mo, 23.04. 2:30 0
Link zu dieser Seite / Seite empfehlen

Das Wetter in ...